createdAt,value
2018-05-12T00:00:39.147Z,95537.95
2018-05-12T00:03:06.658Z,95528.91
2018-05-12T00:05:34.190Z,95535.29
2018-05-12T00:08:01.705Z,95523.06
2018-05-12T00:10:29.234Z,95522.14
2018-05-12T00:12:56.845Z,95528.63
2018-05-12T00:15:24.359Z,95527.80
2018-05-12T00:17:51.879Z,95536.45
2018-05-12T00:20:19.425Z,95538.42
2018-05-12T00:22:46.973Z,95543.53
2018-05-12T00:25:14.519Z,95544.05
2018-05-12T00:27:42.099Z,95527.63
2018-05-12T00:30:09.677Z,95542.80
2018-05-12T00:32:37.255Z,95543.26
2018-05-12T00:35:04.848Z,95544.66
2018-05-12T00:37:32.388Z,95542.44
2018-05-12T00:39:59.923Z,95538.70
2018-05-12T00:42:27.504Z,95537.31
2018-05-12T00:44:55.083Z,95540.22
2018-05-12T00:47:22.647Z,95541.56
2018-05-12T00:49:50.195Z,95543.98
2018-05-12T00:52:17.714Z,95542.28
2018-05-12T00:54:45.283Z,95540.45
2018-05-12T00:57:12.799Z,95541.21
2018-05-12T00:59:40.350Z,95531.16
2018-05-12T01:02:07.911Z,95526.69
2018-05-12T01:04:35.461Z,95529.28
2018-05-12T01:07:03.058Z,95519.66
2018-05-12T01:09:30.587Z,95514.36
2018-05-12T01:11:58.171Z,95503.33
2018-05-12T01:14:25.693Z,95489.41
2018-05-12T01:16:53.234Z,95495.08
2018-05-12T01:19:20.761Z,95525.59
2018-05-12T01:21:48.264Z,95538.98
2018-05-12T01:24:15.824Z,95545.59
2018-05-12T01:26:43.364Z,95528.14
2018-05-12T01:29:10.940Z,95534.40
2018-05-12T01:31:38.465Z,95482.03
2018-05-12T01:34:06.039Z,95549.63
2018-05-12T01:36:33.570Z,95551.34
2018-05-12T01:39:01.095Z,95551.25
2018-05-12T01:41:28.619Z,95535.14
2018-05-12T01:43:56.214Z,95530.63
2018-05-12T01:46:23.777Z,95523.88
2018-05-12T01:48:51.311Z,95530.69
2018-05-12T01:51:18.875Z,95528.86
2018-05-12T01:53:46.385Z,95512.45
2018-05-12T01:56:13.928Z,95532.70
2018-05-12T01:58:41.444Z,95515.91
2018-05-12T02:01:08.960Z,95509.70
2018-05-12T02:03:36.475Z,95514.22
2018-05-12T02:06:03.998Z,95521.45
2018-05-12T02:08:31.546Z,95521.46
2018-05-12T02:10:59.078Z,95525.61
2018-05-12T02:13:26.583Z,95524.81
2018-05-12T02:15:54.095Z,95527.08
2018-05-12T02:18:21.616Z,95533.02
2018-05-12T02:20:49.140Z,95530.34
2018-05-12T02:23:16.678Z,95531.80
2018-05-12T02:25:44.196Z,95535.09
2018-05-12T02:28:11.692Z,95523.76
2018-05-12T02:30:39.271Z,95519.89
2018-05-12T02:33:06.802Z,95508.89
2018-05-12T02:35:34.333Z,95507.22
2018-05-12T02:38:01.840Z,95509.25
2018-05-12T02:40:29.392Z,95507.97
2018-05-12T02:42:56.888Z,95498.31
2018-05-12T02:45:24.397Z,95508.28
2018-05-12T02:47:51.979Z,95514.95
2018-05-12T02:50:19.520Z,95515.94
2018-05-12T02:52:47.107Z,95511.30
2018-05-12T02:55:14.935Z,95519.67
2018-05-12T02:57:42.435Z,95519.84
2018-05-12T03:00:09.999Z,95526.18
2018-05-12T03:02:37.517Z,95522.11
2018-05-12T03:05:05.036Z,95523.20
2018-05-12T03:07:32.931Z,95517.54
2018-05-12T03:10:00.477Z,95523.64
2018-05-12T03:12:28.002Z,95527.27
2018-05-12T03:14:55.521Z,95533.65
2018-05-12T03:17:23.071Z,95536.16
2018-05-12T03:19:50.574Z,95532.73
2018-05-12T03:22:18.085Z,95533.20
2018-05-12T03:24:45.639Z,95523.52
2018-05-12T03:27:13.145Z,95533.88
2018-05-12T03:29:40.748Z,95526.98
2018-05-12T03:32:08.287Z,95529.94
2018-05-12T03:34:35.868Z,95529.73
2018-05-12T03:37:03.423Z,95522.53
2018-05-12T03:39:30.926Z,95535.12
2018-05-12T03:41:58.519Z,95529.34
2018-05-12T03:44:26.023Z,95524.99
2018-05-12T03:46:53.578Z,95528.66
2018-05-12T03:49:21.135Z,95532.16
2018-05-12T03:51:48.646Z,95533.80
2018-05-12T03:54:16.200Z,95539.84
2018-05-12T03:56:43.709Z,95547.39
2018-05-12T03:59:11.228Z,95533.88
2018-05-12T04:01:38.735Z,95555.41
2018-05-12T04:04:06.254Z,95541.81
2018-05-12T04:06:45.683Z,95536.43
2018-05-12T04:09:25.029Z,95540.12
2018-05-12T04:12:04.329Z,95542.26
2018-05-12T04:14:31.875Z,95536.86
2018-05-12T04:16:59.403Z,95536.53
2018-05-12T04:19:26.902Z,95536.53
2018-05-12T04:21:54.419Z,95539.52
2018-05-12T04:24:21.987Z,95541.25
2018-05-12T04:26:50.552Z,95537.03
2018-05-12T04:29:18.105Z,95542.25
2018-05-12T04:31:45.648Z,95532.88
2018-05-12T04:34:13.164Z,95540.28
2018-05-12T04:36:40.675Z,95541.14
2018-05-12T04:39:08.197Z,95548.26
2018-05-12T04:41:35.761Z,95548.28
2018-05-12T04:44:03.284Z,95546.41
2018-05-12T04:46:30.791Z,95568.16
2018-05-12T04:48:58.335Z,95542.81
2018-05-12T04:51:25.842Z,95541.36
2018-05-12T04:53:53.353Z,95536.64
2018-05-12T04:56:21.180Z,95529.67
2018-05-12T04:58:48.767Z,95518.41
2018-05-12T05:01:16.279Z,95530.25
2018-05-12T05:03:43.898Z,95522.27
2018-05-12T05:06:11.428Z,95532.88
2018-05-12T05:08:38.967Z,95529.11
2018-05-12T05:11:06.571Z,95529.21
2018-05-12T05:13:34.097Z,95532.77
2018-05-12T05:16:01.650Z,95532.63
2018-05-12T05:18:29.177Z,95523.08
2018-05-12T05:20:56.700Z,95515.28
2018-05-12T05:23:24.219Z,95509.63
2018-05-12T05:25:51.799Z,95508.77
2018-05-12T05:28:19.375Z,95511.37
2018-05-12T05:30:46.995Z,95510.02
2018-05-12T05:33:14.533Z,95509.76
2018-05-12T05:35:42.059Z,95509.45
2018-05-12T05:38:09.608Z,95522.55
2018-05-12T05:40:37.137Z,95522.61
2018-05-12T05:43:04.710Z,95531.20
2018-05-12T05:45:32.337Z,95525.09
2018-05-12T05:47:59.875Z,95525.03
2018-05-12T05:50:27.636Z,95522.92
2018-05-12T05:52:55.203Z,95514.00
2018-05-12T05:55:22.747Z,95517.95
2018-05-12T05:57:50.290Z,95523.72
2018-05-12T06:00:17.848Z,95517.36
2018-05-12T06:02:45.351Z,95512.95
2018-05-12T06:05:12.877Z,95505.75
2018-05-12T06:07:40.390Z,95512.39
2018-05-12T06:10:07.943Z,95512.92
2018-05-12T06:12:35.556Z,95521.42
2018-05-12T06:15:03.086Z,95521.45
2018-05-12T06:17:30.635Z,95515.16
2018-05-12T06:19:58.151Z,95522.58
2018-05-12T06:22:25.661Z,95523.14
2018-05-12T06:24:53.197Z,95515.31
2018-05-12T06:27:20.751Z,95515.98
2018-05-12T06:29:48.270Z,95509.17
2018-05-12T06:32:15.799Z,95509.81
2018-05-12T06:34:43.349Z,95510.45
2018-05-12T06:37:10.878Z,95504.98
2018-05-12T06:39:38.436Z,95506.88
2018-05-12T06:42:05.971Z,95487.98
2018-05-12T06:44:33.486Z,95502.64
2018-05-12T06:47:01.008Z,95482.38
2018-05-12T06:49:28.570Z,95492.58
2018-05-12T06:51:56.265Z,95490.69
2018-05-12T06:54:23.807Z,95490.88
2018-05-12T06:56:51.323Z,95489.78
2018-05-12T06:59:18.877Z,95494.37
2018-05-12T07:01:46.390Z,95490.86
2018-05-12T07:04:14.847Z,95492.08
2018-05-12T07:06:42.388Z,95497.37
2018-05-12T07:09:09.902Z,95494.91
2018-05-12T07:11:38.385Z,95494.00
2018-05-12T07:14:05.896Z,95489.45
2018-05-12T07:16:33.399Z,95486.42
2018-05-12T07:19:00.962Z,95480.09
2018-05-12T07:21:28.471Z,95473.25
2018-05-12T07:23:55.987Z,95461.98
2018-05-12T07:26:23.520Z,95471.28
2018-05-12T07:28:51.037Z,95467.34
2018-05-12T07:31:18.610Z,95465.66
2018-05-12T07:33:46.136Z,95457.10
2018-05-12T07:36:13.670Z,95458.75
2018-05-12T07:38:41.213Z,95467.23
2018-05-12T07:41:08.797Z,95454.09
2018-05-12T07:43:36.337Z,95457.72
2018-05-12T07:46:04.137Z,95443.73
2018-05-12T07:48:31.659Z,95446.26
2018-05-12T07:50:59.194Z,95450.53
2018-05-12T07:53:27.545Z,95446.68
2018-05-12T07:55:55.083Z,95443.16
2018-05-12T07:58:22.612Z,95445.54
2018-05-12T08:00:50.115Z,95447.72
2018-05-12T08:03:17.626Z,95435.64
2018-05-12T08:05:45.158Z,95431.33
2018-05-12T08:08:12.751Z,95427.41
2018-05-12T08:10:40.532Z,95434.55
2018-05-12T08:13:08.081Z,95430.61
2018-05-12T08:15:35.632Z,95435.54
2018-05-12T08:18:03.484Z,95422.16
2018-05-12T08:20:31.051Z,95425.73
2018-05-12T08:22:58.570Z,95426.08
2018-05-12T08:25:26.104Z,95422.19
2018-05-12T08:27:53.631Z,95423.58
2018-05-12T08:30:21.148Z,95426.34
2018-05-12T08:32:48.736Z,95422.25
2018-05-12T08:35:16.239Z,95417.27
2018-05-12T08:37:43.743Z,95411.89
2018-05-12T08:40:11.298Z,95409.23
2018-05-12T08:42:38.852Z,95398.59
2018-05-12T08:45:06.399Z,95391.17
2018-05-12T08:47:33.916Z,95393.16
2018-05-12T08:50:01.429Z,95390.21
2018-05-12T08:52:28.999Z,95386.56
2018-05-12T08:54:57.378Z,95371.62
2018-05-12T08:57:24.876Z,95381.87
2018-05-12T08:59:52.384Z,95386.14
2018-05-12T09:02:19.969Z,95376.08
2018-05-12T09:04:48.569Z,95373.02
2018-05-12T09:07:16.111Z,95375.84
2018-05-12T09:09:43.655Z,95372.84
2018-05-12T09:12:11.197Z,95370.08
2018-05-12T09:14:38.736Z,95368.17
2018-05-12T09:17:06.260Z,95359.41
2018-05-12T09:19:33.781Z,95364.12
2018-05-12T09:22:02.289Z,95352.58
2018-05-12T09:24:29.830Z,95359.73
2018-05-12T09:26:57.335Z,95351.43
2018-05-12T09:29:24.857Z,95353.81
2018-05-12T09:31:52.373Z,95356.03
2018-05-12T09:34:19.942Z,95347.64
2018-05-12T09:36:47.526Z,95353.19
2018-05-12T09:39:15.040Z,95344.84
2018-05-12T09:41:42.550Z,95338.62
2018-05-12T09:44:10.284Z,95338.17
2018-05-12T09:46:37.813Z,95325.64
2018-05-12T09:49:05.368Z,95325.98
2018-05-12T09:51:33.195Z,95324.75
2018-05-12T09:54:00.715Z,95319.50
2018-05-12T09:56:28.227Z,95316.85
2018-05-12T09:58:55.733Z,95310.81
2018-05-12T10:01:23.332Z,95308.03
2018-05-12T10:03:51.555Z,95309.52
2018-05-12T10:06:19.140Z,95308.36
2018-05-12T10:08:46.651Z,95306.73
2018-05-12T10:11:14.320Z,95295.04
2018-05-12T10:13:41.794Z,95292.64
2018-05-12T10:16:09.291Z,95281.33
2018-05-12T10:18:36.795Z,95286.66
2018-05-12T10:21:04.328Z,95288.38
2018-05-12T10:23:32.114Z,95295.33
2018-05-12T10:25:59.646Z,95282.34
2018-05-12T10:28:27.153Z,95282.95
2018-05-12T10:30:54.702Z,95266.80
2018-05-12T10:33:22.311Z,95262.42
2018-05-12T10:35:49.865Z,95259.45
2018-05-12T10:38:17.381Z,95243.91
2018-05-12T10:40:45.176Z,95254.25
2018-05-12T10:43:12.709Z,95247.23
2018-05-12T10:45:40.220Z,95256.82
2018-05-12T10:48:07.773Z,95254.22
2018-05-12T10:50:35.283Z,95230.70
2018-05-12T10:53:02.861Z,95243.59
2018-05-12T10:55:30.426Z,95238.69
2018-05-12T10:57:57.957Z,95227.69
2018-05-12T11:00:25.500Z,95229.81
2018-05-12T11:02:53.020Z,95226.30
2018-05-12T11:05:20.587Z,95228.33
2018-05-12T11:07:48.139Z,95218.62
2018-05-12T11:10:15.700Z,95220.84
2018-05-12T11:12:43.255Z,95226.94
2018-05-12T11:15:10.775Z,95227.22
2018-05-12T11:17:38.407Z,95221.58
2018-05-12T11:20:05.923Z,95232.01
2018-05-12T11:22:33.476Z,95232.97
2018-05-12T11:25:01.042Z,95229.47
2018-05-12T11:27:28.564Z,95244.81
2018-05-12T11:29:56.088Z,95228.50
2018-05-12T11:32:23.613Z,95239.58
2018-05-12T11:34:51.136Z,95226.94
2018-05-12T11:37:18.694Z,95227.36
2018-05-12T11:39:46.204Z,95228.53
2018-05-12T11:42:13.731Z,95221.51
2018-05-12T11:44:41.331Z,95220.50
2018-05-12T11:47:08.803Z,95231.95
2018-05-12T11:49:36.315Z,95225.19
2018-05-12T11:52:03.857Z,95216.78
2018-05-12T11:54:31.408Z,95217.92
2018-05-12T11:56:58.920Z,95222.46
2018-05-12T11:59:26.431Z,95219.63
2018-05-12T12:01:53.929Z,95206.42
2018-05-12T12:04:21.472Z,95199.70
2018-05-12T12:06:48.976Z,95202.39
2018-05-12T12:09:16.481Z,95193.94
2018-05-12T12:11:44.845Z,95201.73
2018-05-12T12:14:12.359Z,95189.13
2018-05-12T12:16:39.878Z,95171.93
2018-05-12T12:19:07.402Z,95186.89
2018-05-12T12:21:35.958Z,95182.31
2018-05-12T12:24:03.528Z,95188.57
2018-05-12T12:26:31.050Z,95189.27
2018-05-12T12:28:58.550Z,95176.07
2018-05-12T12:31:26.053Z,95184.64
2018-05-12T12:33:53.580Z,95187.39
2018-05-12T12:36:21.082Z,95187.19
2018-05-12T12:38:48.583Z,95193.69
2018-05-12T12:41:16.156Z,95182.61
2018-05-12T12:43:43.721Z,95172.08
2018-05-12T12:46:11.230Z,95166.52
2018-05-12T12:48:38.752Z,95163.58
2018-05-12T12:51:06.247Z,95146.95
2018-05-12T12:53:34.016Z,95153.34
2018-05-12T12:56:01.519Z,95153.58
2018-05-12T12:58:29.073Z,95151.98
2018-05-12T13:00:56.582Z,95144.33
2018-05-12T13:03:24.104Z,95135.39
2018-05-12T13:05:51.611Z,95138.33
2018-05-12T13:08:19.150Z,95136.40
2018-05-12T13:10:46.655Z,95123.44
2018-05-12T13:13:14.167Z,95125.02
2018-05-12T13:15:41.692Z,95119.70
2018-05-12T13:18:09.225Z,95126.50
2018-05-12T13:20:36.836Z,95110.97
2018-05-12T13:23:04.380Z,95117.46
2018-05-12T13:25:31.882Z,95105.00
2018-05-12T13:28:00.301Z,95105.91
2018-05-12T13:30:28.227Z,95098.91
2018-05-12T13:32:55.728Z,95089.33
2018-05-12T13:35:23.219Z,95089.73
2018-05-12T13:37:50.721Z,95090.89
2018-05-12T13:40:18.302Z,95070.05
2018-05-12T13:42:45.748Z,95073.66
2018-05-12T13:45:13.247Z,95069.03
2018-05-12T13:47:40.758Z,95063.89
2018-05-12T13:50:08.299Z,95072.42
2018-05-12T13:52:35.823Z,95084.06
2018-05-12T13:55:03.346Z,95095.58
2018-05-12T13:57:30.855Z,95086.97
2018-05-12T13:59:58.370Z,95074.80
2018-05-12T14:02:25.934Z,95067.72
2018-05-12T14:04:53.824Z,95074.27
2018-05-12T14:07:21.335Z,95088.48
2018-05-12T14:09:48.875Z,95091.87
2018-05-12T14:12:16.399Z,95117.38
2018-05-12T14:14:43.983Z,95117.98
2018-05-12T14:17:11.498Z,95118.22
2018-05-12T14:19:39.076Z,95107.60
2018-05-12T14:22:06.575Z,95111.78
2018-05-12T14:24:34.171Z,95110.91
2018-05-12T14:27:01.708Z,95128.14
2018-05-12T14:29:29.235Z,95134.47
2018-05-12T14:31:56.762Z,95133.59
2018-05-12T14:34:24.271Z,95133.11
2018-05-12T14:36:52.054Z,95141.14
2018-05-12T14:39:19.587Z,95134.73
2018-05-12T14:41:47.153Z,95148.84
2018-05-12T14:44:14.695Z,95152.09
2018-05-12T14:46:42.249Z,95150.79
2018-05-12T14:49:09.805Z,95148.28
2018-05-12T14:51:37.358Z,95135.73
2018-05-12T14:54:04.935Z,95142.73
2018-05-12T14:56:32.505Z,95141.23
2018-05-12T14:59:00.041Z,95136.79
2018-05-12T15:01:27.595Z,95134.80
2018-05-12T15:03:55.161Z,95130.13
2018-05-12T15:06:22.705Z,95133.64
2018-05-12T15:08:50.235Z,95148.34
2018-05-12T15:11:18.236Z,95162.81
2018-05-12T15:13:45.901Z,95163.16
2018-05-12T15:16:13.497Z,95175.08
2018-05-12T15:18:41.023Z,95165.88
2018-05-12T15:21:08.575Z,95157.75
2018-05-12T15:23:36.085Z,95156.73
2018-05-12T15:26:04.110Z,95165.52
2018-05-12T15:28:31.930Z,95169.88
2018-05-12T15:30:59.443Z,95173.02
2018-05-12T15:33:26.943Z,95169.88
2018-05-12T15:35:54.459Z,95182.02
2018-05-12T15:38:22.021Z,95180.27
2018-05-12T15:40:49.526Z,95173.41
2018-05-12T15:43:17.090Z,95173.83
2018-05-12T15:45:47.991Z,95181.23
2018-05-12T15:48:15.533Z,95179.47
2018-05-12T15:50:43.051Z,95171.88
2018-05-12T15:53:10.579Z,95173.42
2018-05-12T15:55:38.139Z,95175.97
2018-05-12T15:58:05.667Z,95168.91
2018-05-12T16:00:33.240Z,95164.98
2018-05-12T16:03:01.088Z,95162.06
2018-05-12T16:05:28.587Z,95171.64
2018-05-12T16:07:56.087Z,95174.78
2018-05-12T16:10:23.909Z,95164.98
2018-05-12T16:12:51.469Z,95170.83
2018-05-12T16:15:18.982Z,95169.27
2018-05-12T16:17:46.560Z,95166.91
2018-05-12T16:20:14.078Z,95165.36
2018-05-12T16:22:41.583Z,95182.78
2018-05-12T16:25:09.093Z,95169.89
2018-05-12T16:27:36.636Z,95175.58
2018-05-12T16:30:05.791Z,95184.97
2018-05-12T16:32:33.295Z,95175.56
2018-05-12T16:35:00.832Z,95187.09
2018-05-12T16:37:28.430Z,95198.62
2018-05-12T16:39:55.914Z,95198.45
2018-05-12T16:42:23.594Z,95217.02
2018-05-12T16:44:51.102Z,95219.57
2018-05-12T16:47:18.643Z,95218.20
2018-05-12T16:49:46.162Z,95225.80
2018-05-12T16:52:13.660Z,95236.19
2018-05-12T16:54:41.156Z,95241.80
2018-05-12T16:57:08.659Z,95238.02
2018-05-12T16:59:36.190Z,95235.16
2018-05-12T17:02:03.710Z,95244.77
2018-05-12T17:04:31.367Z,95252.59
2018-05-12T17:06:58.868Z,95250.52
2018-05-12T17:09:26.412Z,95251.90
2018-05-12T17:11:53.921Z,95266.52
2018-05-12T17:14:21.440Z,95271.55
2018-05-12T17:16:48.975Z,95264.84
2018-05-12T17:19:16.475Z,95273.65
2018-05-12T17:21:43.998Z,95276.34
2018-05-12T17:24:11.495Z,95276.29
2018-05-12T17:26:39.020Z,95270.73
2018-05-12T17:29:06.527Z,95273.34
2018-05-12T17:31:34.028Z,95278.92
2018-05-12T17:34:01.545Z,95274.58
2018-05-12T17:36:29.056Z,95273.92
2018-05-12T17:38:56.560Z,95263.91
2018-05-12T17:41:24.084Z,95277.05
2018-05-12T17:43:51.587Z,95285.45
2018-05-12T17:46:19.098Z,95282.27
2018-05-12T17:48:46.607Z,95278.62
2018-05-12T17:51:14.107Z,95268.61
2018-05-12T17:53:44.502Z,95273.11
2018-05-12T17:56:12.052Z,95282.44
2018-05-12T17:58:39.560Z,95296.36
2018-05-12T18:01:07.068Z,95300.00
2018-05-12T18:03:34.591Z,95297.92
2018-05-12T18:06:02.139Z,95295.47
2018-05-12T18:08:29.650Z,95301.20
2018-05-12T18:10:57.151Z,95304.45
2018-05-12T18:13:24.705Z,95302.83
2018-05-12T18:15:52.216Z,95305.69
2018-05-12T18:18:20.753Z,95302.09
2018-05-12T18:20:48.280Z,95304.23
2018-05-12T18:23:15.838Z,95301.20
2018-05-12T18:25:43.346Z,95301.88
2018-05-12T18:28:10.871Z,95299.81
2018-05-12T18:30:38.384Z,95309.56
2018-05-12T18:33:05.909Z,95310.22
2018-05-12T18:35:33.427Z,95306.44
2018-05-12T18:38:00.950Z,95288.36
2018-05-12T18:40:28.468Z,95301.62
2018-05-12T18:42:56.034Z,95296.47
2018-05-12T18:45:23.523Z,95317.94
2018-05-12T18:47:51.064Z,95291.95
2018-05-12T18:50:18.586Z,95290.11
2018-05-12T18:52:46.137Z,95293.32
2018-05-12T18:55:13.639Z,95290.56
2018-05-12T18:57:41.135Z,95290.03
2018-05-12T19:00:08.672Z,95272.16
2018-05-12T19:02:36.197Z,95269.38
2018-05-12T19:05:03.708Z,95259.58
2018-05-12T19:07:31.290Z,95254.55
2018-05-12T19:09:58.843Z,95252.93
2018-05-12T19:12:26.461Z,95256.75
2018-05-12T19:14:54.001Z,95247.13
2018-05-12T19:17:21.531Z,95259.66
2018-05-12T19:19:49.088Z,95258.77
2018-05-12T19:22:16.668Z,95251.06
2018-05-12T19:24:44.469Z,95250.24
2018-05-12T19:27:11.971Z,95274.55
2018-05-12T19:29:39.508Z,95246.20
2018-05-12T19:32:07.019Z,95247.59
2018-05-12T19:34:34.568Z,95248.88
2018-05-12T19:37:02.109Z,95256.36
2018-05-12T19:39:29.628Z,95253.88
2018-05-12T19:41:57.169Z,95254.60
2018-05-12T19:44:24.682Z,95257.05
2018-05-12T19:46:52.229Z,95258.20
2018-05-12T19:49:19.737Z,95257.42
2018-05-12T19:51:47.253Z,95255.34
2018-05-12T19:54:14.760Z,95253.69
2018-05-12T19:56:42.277Z,95248.41
2018-05-12T19:59:09.778Z,95257.94
2018-05-12T20:01:37.280Z,95254.49
2018-05-12T20:04:04.820Z,95230.61
2018-05-12T20:06:32.327Z,95253.91
2018-05-12T20:08:59.884Z,95253.15
2018-05-12T20:11:27.409Z,95264.34
2018-05-12T20:13:54.919Z,95248.86
2018-05-12T20:16:22.431Z,95255.86
2018-05-12T20:18:50.728Z,95260.39
2018-05-12T20:21:18.282Z,95249.02
2018-05-12T20:23:45.795Z,95258.50
2018-05-12T20:26:13.318Z,95252.01
2018-05-12T20:28:41.174Z,95261.30
2018-05-12T20:31:08.799Z,95261.28
2018-05-12T20:33:36.286Z,95271.80
2018-05-12T20:36:03.843Z,95263.78
2018-05-12T20:38:31.390Z,95267.02
2018-05-12T20:40:58.907Z,95264.58
2018-05-12T20:43:26.420Z,95269.39
2018-05-12T20:45:53.923Z,95259.69
2018-05-12T20:48:21.436Z,95279.80
2018-05-12T20:50:48.999Z,95272.17
2018-05-12T20:53:16.508Z,95274.61
2018-05-12T20:55:44.031Z,95281.55
2018-05-12T20:58:11.552Z,95282.58
2018-05-12T21:00:39.099Z,95280.63
2018-05-12T21:03:06.694Z,95287.47
2018-05-12T21:05:34.136Z,95283.54
2018-05-12T21:08:01.707Z,95293.97
2018-05-12T21:10:29.228Z,95291.99
2018-05-12T21:12:56.770Z,95300.13
2018-05-12T21:15:24.292Z,95307.65
2018-05-12T21:17:51.809Z,95309.95
2018-05-12T21:20:19.332Z,95309.83
2018-05-12T21:22:46.861Z,95308.80
2018-05-12T21:25:14.407Z,95309.12
2018-05-12T21:27:41.922Z,95326.81
2018-05-12T21:30:09.469Z,95310.53
2018-05-12T21:32:37.252Z,95312.22
2018-05-12T21:35:04.760Z,95304.11
2018-05-12T21:37:32.323Z,95316.97
2018-05-12T21:39:59.831Z,95333.63
2018-05-12T21:42:27.350Z,95325.89
2018-05-12T21:44:55.794Z,95329.44
2018-05-12T21:47:23.311Z,95324.84
2018-05-12T21:49:50.832Z,95316.80
2018-05-12T21:52:18.343Z,95317.59
2018-05-12T21:54:45.848Z,95305.66
2018-05-12T21:57:13.368Z,95318.89
2018-05-12T21:59:40.927Z,95308.49
2018-05-12T22:02:08.445Z,95310.05
2018-05-12T22:04:36.006Z,95309.80
2018-05-12T22:07:03.531Z,95296.41
2018-05-12T22:09:31.036Z,95301.19
2018-05-12T22:11:58.569Z,95311.98
2018-05-12T22:14:26.086Z,95302.72
2018-05-12T22:16:53.599Z,95314.36
2018-05-12T22:19:21.132Z,95313.34
2018-05-12T22:21:48.685Z,95312.36
2018-05-12T22:24:16.195Z,95313.20
2018-05-12T22:26:43.717Z,95309.98
2018-05-12T22:29:11.243Z,95317.38
2018-05-12T22:31:38.807Z,95306.84
2018-05-12T22:34:06.332Z,95306.13
2018-05-12T22:36:33.833Z,95310.78
2018-05-12T22:39:01.387Z,95297.69
2018-05-12T22:41:28.894Z,95311.15
2018-05-12T22:43:56.409Z,95307.39
2018-05-12T22:46:23.941Z,95314.56
2018-05-12T22:48:51.945Z,95316.38
2018-05-12T22:51:19.518Z,95313.03
2018-05-12T22:53:47.041Z,95325.51
2018-05-12T22:56:14.551Z,95331.89
2018-05-12T22:58:42.067Z,95333.47
2018-05-12T23:01:09.585Z,95336.78
2018-05-12T23:03:37.091Z,95336.67
2018-05-12T23:06:04.624Z,95322.42
2018-05-12T23:08:32.240Z,95283.02
2018-05-12T23:10:59.767Z,95261.13
2018-05-12T23:13:27.293Z,95249.44
2018-05-12T23:15:54.807Z,95248.03
2018-05-12T23:18:22.403Z,95246.53
2018-05-12T23:20:49.944Z,95241.45
2018-05-12T23:23:17.462Z,95237.02
2018-05-12T23:25:44.971Z,95231.71
2018-05-12T23:28:12.484Z,95243.28
2018-05-12T23:30:40.049Z,95240.66
2018-05-12T23:33:07.596Z,95229.71
2018-05-12T23:35:35.128Z,95235.72
2018-05-12T23:38:02.702Z,95206.13
2018-05-12T23:40:30.291Z,95229.45
2018-05-12T23:42:57.861Z,95224.25
2018-05-12T23:45:25.443Z,95224.20
2018-05-12T23:47:52.979Z,95224.20
2018-05-12T23:50:20.512Z,95223.58
2018-05-12T23:52:48.061Z,95221.98
2018-05-12T23:55:15.633Z,95225.25
2018-05-12T23:57:43.174Z,95234.69
